createdAt,value
2019-05-01T00:01:27.692Z,15.37
2019-05-01T00:04:16.819Z,15.00
2019-05-01T00:06:48.196Z,16.93
2019-05-01T00:09:16.069Z,19.63
2019-05-01T00:11:43.880Z,15.53
2019-05-01T00:14:11.613Z,17.60
2019-05-01T00:16:41.607Z,17.87
2019-05-01T00:19:12.553Z,16.90
2019-05-01T00:22:02.972Z,19.10
2019-05-01T00:24:44.591Z,18.37
2019-05-01T00:27:14.454Z,19.17
2019-05-01T00:29:50.960Z,17.00
2019-05-01T00:32:20.942Z,18.90
2019-05-01T00:34:50.637Z,18.33
2019-05-01T00:37:23.155Z,17.17
2019-05-01T00:39:51.233Z,19.77
2019-05-01T00:42:22.441Z,16.17
2019-05-01T00:44:52.784Z,18.47
2019-05-01T00:47:21.851Z,18.80
2019-05-01T00:49:53.215Z,20.40
2019-05-01T00:52:22.583Z,19.03
2019-05-01T00:54:52.643Z,17.57
2019-05-01T00:57:34.536Z,17.53
2019-05-01T01:00:42.914Z,16.40
2019-05-01T01:03:06.362Z,16.80
2019-05-01T01:05:35.610Z,22.03
2019-05-01T01:08:04.503Z,20.17
2019-05-01T01:10:32.568Z,22.23
2019-05-01T01:13:02.727Z,22.97
2019-05-01T01:15:35.212Z,18.40
2019-05-01T01:18:11.615Z,21.30
2019-05-01T01:20:47.552Z,21.80
2019-05-01T01:23:15.880Z,19.30
2019-05-01T01:25:47.551Z,21.10
2019-05-01T01:28:19.379Z,19.50
2019-05-01T01:30:56.690Z,17.90
2019-05-01T01:33:24.782Z,17.73
2019-05-01T01:35:54.623Z,21.33
2019-05-01T01:38:27.352Z,18.07
2019-05-01T01:41:04.086Z,19.30
2019-05-01T01:44:09.934Z,18.63
2019-05-01T01:46:43.084Z,18.33
2019-05-01T01:49:11.474Z,20.63
2019-05-01T01:51:41.729Z,19.50
2019-05-01T01:54:09.533Z,18.43
2019-05-01T01:56:38.779Z,17.67
2019-05-01T01:59:10.814Z,19.03
2019-05-01T02:01:56.707Z,16.93
2019-05-01T02:04:39.391Z,19.57
2019-05-01T02:07:07.198Z,19.87
2019-05-01T02:09:36.906Z,19.07
2019-05-01T02:12:06.742Z,21.00
2019-05-01T02:14:45.480Z,19.43
2019-05-01T02:17:18.554Z,17.57
2019-05-01T02:19:47.662Z,25.13
2019-05-01T02:22:19.045Z,22.83
2019-05-01T02:24:48.811Z,16.80
2019-05-01T02:27:26.135Z,19.50
2019-05-01T02:29:58.272Z,20.30
2019-05-01T02:32:30.231Z,20.17
2019-05-01T02:34:59.943Z,19.13
2019-05-01T02:37:36.109Z,22.20
2019-05-01T02:40:25.957Z,18.90
2019-05-01T02:42:55.902Z,19.77
2019-05-01T02:45:25.335Z,20.63
2019-05-01T02:47:56.275Z,22.73
2019-05-01T02:50:27.233Z,21.80
2019-05-01T02:52:55.379Z,21.03
2019-05-01T02:55:31.496Z,20.83
2019-05-01T02:57:59.980Z,20.67
2019-05-01T03:00:28.478Z,21.77
2019-05-01T03:02:58.519Z,21.53
2019-05-01T03:05:26.299Z,19.07
2019-05-01T03:07:58.059Z,19.47
2019-05-01T03:10:26.689Z,18.17
2019-05-01T03:12:57.072Z,20.93
2019-05-01T03:15:27.503Z,20.27
2019-05-01T03:18:30.025Z,20.70
2019-05-01T03:21:11.876Z,21.57
2019-05-01T03:23:46.600Z,19.33
2019-05-01T03:26:22.828Z,21.23
2019-05-01T03:28:50.812Z,22.57
2019-05-01T03:31:19.013Z,20.00
2019-05-01T03:33:47.200Z,21.53
2019-05-01T03:36:17.552Z,21.77
2019-05-01T03:38:45.807Z,19.40
2019-05-01T03:41:15.455Z,20.83
2019-05-01T03:43:43.606Z,23.53
2019-05-01T03:46:11.503Z,20.00
2019-05-01T03:48:39.591Z,20.23
2019-05-01T03:51:10.745Z,22.77
2019-05-01T03:53:41.953Z,24.37
2019-05-01T03:56:11.517Z,21.97
2019-05-01T03:58:42.278Z,21.40
2019-05-01T04:01:22.157Z,22.10
2019-05-01T04:03:59.013Z,21.40
2019-05-01T04:06:30.519Z,20.37
2019-05-01T04:08:59.387Z,19.40
2019-05-01T04:11:27.652Z,19.77
2019-05-01T04:13:56.599Z,23.57
2019-05-01T04:16:27.198Z,22.43
2019-05-01T04:18:57.903Z,19.40
2019-05-01T04:21:32.049Z,19.60
2019-05-01T04:24:00.599Z,20.73
2019-05-01T04:26:37.939Z,19.93
2019-05-01T04:29:31.326Z,21.93
2019-05-01T04:32:06.654Z,21.20
2019-05-01T04:35:00.662Z,22.87
2019-05-01T04:37:28.691Z,21.63
2019-05-01T04:39:58.570Z,23.23
2019-05-01T04:42:26.460Z,20.23
2019-05-01T04:44:56.580Z,21.67
2019-05-01T04:47:24.574Z,20.40
2019-05-01T04:49:53.666Z,21.57
2019-05-01T04:52:21.339Z,24.70
2019-05-01T04:54:50.891Z,24.57
2019-05-01T04:57:31.419Z,20.03
2019-05-01T05:00:00.063Z,21.33
2019-05-01T05:02:36.767Z,22.23
2019-05-01T05:05:07.552Z,20.00
2019-05-01T05:07:35.742Z,23.37
2019-05-01T05:10:08.567Z,23.30
2019-05-01T05:12:47.947Z,26.03
2019-05-01T05:15:34.369Z,21.33
2019-05-01T05:17:59.664Z,20.03
2019-05-01T05:20:27.759Z,21.57
2019-05-01T05:22:57.837Z,22.07
2019-05-01T05:25:27.975Z,25.73
2019-05-01T05:27:59.428Z,21.87
2019-05-01T05:30:31.245Z,23.57
2019-05-01T05:33:02.467Z,22.37
2019-05-01T05:35:32.128Z,21.73
2019-05-01T05:38:20.513Z,19.03
2019-05-01T05:40:49.340Z,19.77
2019-05-01T05:43:18.333Z,21.30
2019-05-01T05:45:46.710Z,22.97
2019-05-01T05:48:14.830Z,22.77
2019-05-01T05:50:57.349Z,22.17
2019-05-01T05:53:29.310Z,24.73
2019-05-01T05:56:01.805Z,28.00
2019-05-01T05:58:44.773Z,20.57
2019-05-01T06:01:32.946Z,26.57
2019-05-01T06:04:35.021Z,22.03
2019-05-01T06:07:21.596Z,21.70
2019-05-01T06:10:23.227Z,24.03
2019-05-01T06:13:04.681Z,23.43
2019-05-01T06:15:49.296Z,23.47
2019-05-01T06:18:49.583Z,24.43
2019-05-01T06:21:25.719Z,23.73
2019-05-01T06:24:13.286Z,24.50
2019-05-01T06:26:43.966Z,26.90
2019-05-01T06:29:11.909Z,21.30
2019-05-01T06:31:41.233Z,24.67
2019-05-01T06:34:11.195Z,23.57
2019-05-01T06:36:44.311Z,26.77
2019-05-01T06:39:17.632Z,23.13
2019-05-01T06:41:52.735Z,25.70
2019-05-01T06:44:33.353Z,22.13
2019-05-01T06:47:43.022Z,21.00
2019-05-01T06:51:12.914Z,20.03
2019-05-01T06:53:55.105Z,19.57
2019-05-01T06:56:35.198Z,21.47
2019-05-01T06:59:04.124Z,21.17
2019-05-01T07:01:44.581Z,20.17
2019-05-01T07:04:51.263Z,20.47
2019-05-01T07:08:24.727Z,21.53
2019-05-01T07:11:35.203Z,18.03
2019-05-01T07:14:04.589Z,29.93
2019-05-01T07:16:37.882Z,22.47
2019-05-01T07:19:07.036Z,24.30
2019-05-01T07:21:39.598Z,22.10
2019-05-01T07:24:07.709Z,24.97
2019-05-01T07:26:39.033Z,24.67
2019-05-01T07:29:11.079Z,22.00
2019-05-01T07:31:39.466Z,21.83
2019-05-01T07:34:16.306Z,22.27
2019-05-01T07:36:41.177Z,24.97
2019-05-01T07:39:14.653Z,23.87
2019-05-01T07:42:07.805Z,25.97
2019-05-01T07:44:41.896Z,25.00
2019-05-01T07:47:30.429Z,24.30
2019-05-01T07:50:07.387Z,24.07
2019-05-01T07:52:37.291Z,26.97
2019-05-01T07:55:12.972Z,23.67
2019-05-01T07:57:41.290Z,23.33
2019-05-01T08:00:21.537Z,25.70
2019-05-01T08:02:53.422Z,26.70
2019-05-01T08:05:26.258Z,23.07
2019-05-01T08:08:02.923Z,24.40
2019-05-01T08:10:31.512Z,24.97
2019-05-01T08:13:00.259Z,26.13
2019-05-01T08:15:32.488Z,26.53
2019-05-01T08:18:27.793Z,23.03
2019-05-01T08:21:00.764Z,22.03
2019-05-01T08:23:29.952Z,23.17
2019-05-01T08:26:53.577Z,23.60
2019-05-01T08:33:28.355Z,20.80
2019-05-01T08:36:21.510Z,25.80
2019-05-01T08:39:09.117Z,25.30
2019-05-01T08:41:52.100Z,26.83
2019-05-01T08:44:24.800Z,22.60
2019-05-01T08:47:00.268Z,24.10
2019-05-01T08:49:51.506Z,23.40
2019-05-01T08:52:24.666Z,26.23
2019-05-01T08:54:54.702Z,23.50
2019-05-01T08:57:22.237Z,25.10
2019-05-01T09:03:37.935Z,24.50
2019-05-01T09:06:06.415Z,28.63
2019-05-01T09:08:34.831Z,25.63
2019-05-01T09:11:09.890Z,24.10
2019-05-01T09:13:37.816Z,25.07
2019-05-01T09:16:10.354Z,20.77
2019-05-01T09:18:43.962Z,27.07
2019-05-01T09:21:33.150Z,23.30
2019-05-01T09:24:05.828Z,26.47
2019-05-01T09:26:45.352Z,21.33
2019-05-01T09:29:28.463Z,24.13
2019-05-01T09:32:14.097Z,23.17
2019-05-01T09:34:53.546Z,26.30
2019-05-01T09:37:30.276Z,20.73
2019-05-01T09:40:09.233Z,21.90
2019-05-01T09:43:18.239Z,24.23
2019-05-01T09:49:18.362Z,17.30
2019-05-01T09:52:05.273Z,18.47
2019-05-01T09:54:48.133Z,17.77
2019-05-01T09:57:42.736Z,15.20
2019-05-01T10:00:41.129Z,13.97
2019-05-01T10:03:39.696Z,13.63
2019-05-01T10:06:43.336Z,18.67
2019-05-01T10:09:16.656Z,12.90
2019-05-01T10:11:44.256Z,16.10
2019-05-01T10:14:27.237Z,14.60
2019-05-01T10:16:58.833Z,14.33
2019-05-01T10:27:00.093Z,12.30
2019-05-01T10:30:01.625Z,15.27
2019-05-01T10:32:38.027Z,14.20
2019-05-01T10:35:25.713Z,12.27
2019-05-01T10:38:04.791Z,15.70
2019-05-01T10:44:25.156Z,19.43
2019-05-01T10:46:50.817Z,17.27
2019-05-01T10:57:42.594Z,18.10
2019-05-01T11:00:12.708Z,16.13
2019-05-01T11:02:43.019Z,14.97
2019-05-01T11:05:12.505Z,14.37
2019-05-01T11:08:44.222Z,14.47
2019-05-01T11:11:00.287Z,15.13
2019-05-01T11:13:37.273Z,12.97
2019-05-01T11:16:22.055Z,14.77
2019-05-01T11:18:51.867Z,14.90
2019-05-01T11:21:19.946Z,13.80
2019-05-01T11:23:54.950Z,12.47
2019-05-01T11:26:25.333Z,17.33
2019-05-01T11:36:39.091Z,16.77
2019-05-01T11:39:26.231Z,14.93
2019-05-01T11:42:12.718Z,12.77
2019-05-01T11:44:40.607Z,16.30
2019-05-01T11:47:10.515Z,14.77
2019-05-01T11:49:42.398Z,13.27
2019-05-01T11:52:13.396Z,11.40
2019-05-01T11:54:51.203Z,12.00
2019-05-01T11:57:22.750Z,11.80
2019-05-01T12:00:07.148Z,13.10
2019-05-01T12:06:22.634Z,13.33
2019-05-01T12:08:45.460Z,14.43
2019-05-01T12:11:13.385Z,12.20
2019-05-01T12:13:44.135Z,14.00
2019-05-01T12:20:08.919Z,12.87
2019-05-01T12:22:37.792Z,11.60
2019-05-01T12:25:56.413Z,15.50
2019-05-01T12:28:47.345Z,13.03
2019-05-01T12:31:21.919Z,13.43
2019-05-01T12:34:01.706Z,12.53
2019-05-01T12:36:44.978Z,12.60
2019-05-01T12:39:15.052Z,14.20
2019-05-01T12:41:58.442Z,13.23
2019-05-01T12:44:34.822Z,13.00
2019-05-01T12:47:32.401Z,13.23
2019-05-01T12:50:02.482Z,11.87
2019-05-01T12:53:02.747Z,12.97
2019-05-01T12:56:59.735Z,16.17
2019-05-01T13:00:23.097Z,13.60
2019-05-01T13:07:24.435Z,13.90
2019-05-01T13:09:59.338Z,14.90
2019-05-01T13:12:27.538Z,13.87
2019-05-01T13:15:15.130Z,16.60
2019-05-01T13:18:00.571Z,13.33
2019-05-01T13:21:26.227Z,12.63
2019-05-01T13:23:56.460Z,14.33
2019-05-01T13:26:36.437Z,15.83
2019-05-01T13:29:23.655Z,13.50
2019-05-01T13:32:27.540Z,12.50
2019-05-01T13:34:57.078Z,13.87
2019-05-01T13:37:26.657Z,13.63
2019-05-01T13:39:57.584Z,14.50
2019-05-01T13:42:34.723Z,11.93
2019-05-01T13:45:11.975Z,12.10
2019-05-01T13:47:41.622Z,14.97
2019-05-01T13:50:13.506Z,15.90
2019-05-01T13:52:42.308Z,15.63
2019-05-01T13:56:13.175Z,14.80
2019-05-01T13:59:17.431Z,11.27
2019-05-01T14:01:51.807Z,14.47
2019-05-01T14:05:28.502Z,14.77
2019-05-01T14:09:03.208Z,16.00
2019-05-01T14:11:56.516Z,12.20
2019-05-01T14:14:36.898Z,13.07
2019-05-01T14:17:05.048Z,15.83
2019-05-01T14:19:35.967Z,16.57
2019-05-01T14:22:19.197Z,14.53
2019-05-01T14:31:56.758Z,16.07
2019-05-01T14:34:41.824Z,12.30
2019-05-01T14:37:43.468Z,11.07
2019-05-01T14:40:24.926Z,12.00
2019-05-01T14:42:56.483Z,14.20
2019-05-01T14:45:26.755Z,12.30
2019-05-01T14:47:55.229Z,15.90
2019-05-01T14:50:23.951Z,14.27
2019-05-01T14:52:51.809Z,13.67
2019-05-01T14:55:21.566Z,11.80
2019-05-01T15:02:18.177Z,16.60
2019-05-01T15:04:49.958Z,13.77
2019-05-01T15:07:22.540Z,11.83
2019-05-01T15:09:53.582Z,13.20
2019-05-01T15:12:30.502Z,13.23
2019-05-01T15:15:23.449Z,17.20
2019-05-01T15:18:33.542Z,17.80
2019-05-01T15:22:23.597Z,17.20
2019-05-01T15:32:00.319Z,14.70
2019-05-01T15:34:40.674Z,15.77
2019-05-01T15:37:11.043Z,12.80
2019-05-01T15:39:55.194Z,14.60
2019-05-01T15:42:32.749Z,15.93
2019-05-01T15:45:00.954Z,16.63
2019-05-01T15:47:40.590Z,16.07
2019-05-01T15:50:12.518Z,14.07
2019-05-01T15:53:28.111Z,12.97
2019-05-01T15:56:27.378Z,12.53
2019-05-01T15:59:08.225Z,11.03
2019-05-01T16:01:40.591Z,15.83
2019-05-01T16:04:10.879Z,13.80
2019-05-01T16:06:44.437Z,12.93
2019-05-01T16:09:18.900Z,13.30
2019-05-01T16:15:37.350Z,12.77
2019-05-01T16:18:18.787Z,15.50
2019-05-01T16:20:48.769Z,13.27
2019-05-01T16:23:16.475Z,12.40
2019-05-01T16:26:01.017Z,12.50
2019-05-01T16:28:30.729Z,17.43
2019-05-01T16:31:03.209Z,14.03
2019-05-01T16:33:37.663Z,12.03
2019-05-01T16:36:20.388Z,13.73
2019-05-01T16:39:48.027Z,18.80
2019-05-01T16:42:16.549Z,10.83
2019-05-01T16:45:06.104Z,13.37
2019-05-01T16:48:08.317Z,12.73
2019-05-01T16:51:12.740Z,15.00
2019-05-01T16:53:43.156Z,11.93
2019-05-01T16:56:19.059Z,13.93
2019-05-01T16:58:49.833Z,14.10
2019-05-01T17:02:10.279Z,13.57
2019-05-01T17:05:24.227Z,13.57
2019-05-01T17:07:50.103Z,16.10
2019-05-01T17:11:12.309Z,18.60
2019-05-01T17:13:44.014Z,14.10
2019-05-01T17:17:26.353Z,17.40
2019-05-01T17:20:00.122Z,12.77
2019-05-01T17:22:28.051Z,14.00
2019-05-01T17:24:56.537Z,12.17
2019-05-01T17:27:42.551Z,21.13
2019-05-01T17:30:16.567Z,16.13
2019-05-01T17:32:48.163Z,15.33
2019-05-01T17:35:16.569Z,16.67
2019-05-01T17:38:00.682Z,15.10
2019-05-01T17:47:57.863Z,18.83
2019-05-01T17:50:30.026Z,16.03
2019-05-01T17:54:07.819Z,13.77
2019-05-01T18:00:36.055Z,14.33
2019-05-01T18:03:58.189Z,13.30
2019-05-01T18:07:18.251Z,16.63
2019-05-01T18:13:59.541Z,15.13
2019-05-01T18:16:29.475Z,14.30
2019-05-01T18:19:25.024Z,16.57
2019-05-01T18:22:26.769Z,17.00
2019-05-01T18:25:34.952Z,14.57
2019-05-01T18:28:49.465Z,17.73
2019-05-01T18:31:36.219Z,13.90
2019-05-01T18:34:15.242Z,13.83
2019-05-01T18:37:14.108Z,17.93
2019-05-01T18:44:11.396Z,16.10
2019-05-01T18:46:48.590Z,15.37
2019-05-01T18:49:44.520Z,18.17
2019-05-01T18:52:18.112Z,13.37
2019-05-01T18:59:19.521Z,15.73
2019-05-01T19:02:04.295Z,16.07
2019-05-01T19:04:55.842Z,15.03
2019-05-01T19:08:29.306Z,15.90
2019-05-01T19:14:17.999Z,13.93
2019-05-01T19:16:47.124Z,17.37
2019-05-01T19:19:15.620Z,15.03
2019-05-01T19:21:57.106Z,14.13
2019-05-01T19:24:26.223Z,14.87
2019-05-01T19:26:58.618Z,15.57
2019-05-01T19:29:36.434Z,16.97
2019-05-01T19:33:01.706Z,13.83
2019-05-01T19:35:40.325Z,15.77
2019-05-01T19:38:09.440Z,15.17
2019-05-01T19:40:37.608Z,12.67
2019-05-01T19:43:26.977Z,15.13
2019-05-01T19:46:03.891Z,15.37
2019-05-01T19:48:45.557Z,14.20
2019-05-01T19:51:23.842Z,14.20
2019-05-01T19:53:53.532Z,14.17
2019-05-01T19:56:29.927Z,18.87
2019-05-01T19:59:07.256Z,16.63
2019-05-01T20:02:22.115Z,17.23
2019-05-01T20:05:02.354Z,18.97
2019-05-01T20:07:39.293Z,19.30
2019-05-01T20:10:10.918Z,18.73
2019-05-01T20:12:44.174Z,20.20
2019-05-01T20:15:14.930Z,18.10
2019-05-01T20:17:44.906Z,16.70
2019-05-01T20:20:14.634Z,19.00
2019-05-01T20:22:48.119Z,18.87
2019-05-01T20:25:23.554Z,18.60
2019-05-01T20:27:54.516Z,21.47
2019-05-01T20:30:29.282Z,19.83
2019-05-01T20:33:09.079Z,21.10
2019-05-01T20:35:48.607Z,20.93
2019-05-01T20:39:31.700Z,19.43
2019-05-01T20:41:46.195Z,17.93
2019-05-01T20:44:25.620Z,20.27
2019-05-01T20:47:02.605Z,21.47
2019-05-01T20:49:36.455Z,19.00
2019-05-01T20:52:04.503Z,17.67
2019-05-01T20:54:33.183Z,16.80
2019-05-01T20:57:35.253Z,23.77
2019-05-01T21:00:33.047Z,22.00
2019-05-01T21:03:03.575Z,18.97
2019-05-01T21:05:38.484Z,20.20
2019-05-01T21:08:23.384Z,18.30
2019-05-01T21:10:57.815Z,16.27
2019-05-01T21:13:26.648Z,16.93
2019-05-01T21:15:56.296Z,19.00
2019-05-01T21:18:26.069Z,17.27
2019-05-01T21:21:03.342Z,22.17
2019-05-01T21:23:47.955Z,21.57
2019-05-01T21:26:24.884Z,17.70
2019-05-01T21:29:00.804Z,22.93
2019-05-01T21:31:34.158Z,21.10
2019-05-01T21:34:27.260Z,20.57
2019-05-01T21:36:56.181Z,19.63
2019-05-01T21:39:28.957Z,19.13
2019-05-01T21:42:06.564Z,25.47
2019-05-01T21:44:44.866Z,20.63
2019-05-01T21:47:14.007Z,18.63
2019-05-01T21:49:42.937Z,23.83
2019-05-01T21:52:10.734Z,16.73
2019-05-01T21:54:39.279Z,19.80
2019-05-01T21:57:07.550Z,20.93
2019-05-01T21:59:39.816Z,20.17
2019-05-01T22:02:11.913Z,20.00
2019-05-01T22:04:39.869Z,18.30
2019-05-01T22:07:10.990Z,19.53
2019-05-01T22:09:39.282Z,15.93
2019-05-01T22:12:17.656Z,17.27
2019-05-01T22:14:59.105Z,17.77
2019-05-01T22:17:56.092Z,19.70
2019-05-01T22:20:36.282Z,19.67
2019-05-01T22:23:21.975Z,17.13
2019-05-01T22:25:59.171Z,15.77
2019-05-01T22:28:59.207Z,17.13
2019-05-01T22:31:52.873Z,20.00
2019-05-01T22:34:31.349Z,19.73
2019-05-01T22:36:59.147Z,17.33
2019-05-01T22:39:32.064Z,22.93
2019-05-01T22:42:03.839Z,20.00
2019-05-01T22:44:31.524Z,18.57
2019-05-01T22:47:03.370Z,19.77
2019-05-01T22:52:39.143Z,17.83
2019-05-01T22:55:06.985Z,18.47
2019-05-01T22:57:35.548Z,20.07
2019-05-01T23:00:04.377Z,19.77
2019-05-01T23:02:39.697Z,17.43
2019-05-01T23:05:14.786Z,20.27
2019-05-01T23:08:09.203Z,20.67
2019-05-01T23:10:41.811Z,18.30
2019-05-01T23:13:21.216Z,18.30
2019-05-01T23:16:00.734Z,19.83
2019-05-01T23:18:31.730Z,21.17
2019-05-01T23:21:02.703Z,21.60
2019-05-01T23:23:41.760Z,20.00
2019-05-01T23:26:32.052Z,20.67
2019-05-01T23:29:05.888Z,21.27
2019-05-01T23:31:42.940Z,20.87
2019-05-01T23:34:27.960Z,22.10
2019-05-01T23:36:52.629Z,23.87
2019-05-01T23:39:39.730Z,17.87
2019-05-01T23:42:54.255Z,20.53
2019-05-01T23:45:58.201Z,17.83
2019-05-01T23:48:29.859Z,23.87
2019-05-01T23:50:59.746Z,21.57
2019-05-01T23:53:27.683Z,21.47
2019-05-01T23:56:11.683Z,19.57
2019-05-01T23:58:57.317Z,23.60
